createdAt,value
2019-03-05T00:00:39.750Z,7.20
2019-03-05T00:03:08.764Z,7.10
2019-03-05T00:05:37.726Z,7.10
2019-03-05T00:08:06.783Z,7.10
2019-03-05T00:10:35.826Z,7.00
2019-03-05T00:13:04.842Z,7.00
2019-03-05T00:15:33.911Z,7.00
2019-03-05T00:18:03.155Z,7.00
2019-03-05T00:20:32.138Z,6.90
2019-03-05T00:23:01.214Z,6.90
2019-03-05T00:25:30.367Z,6.90
2019-03-05T00:28:05.651Z,6.80
2019-03-05T00:30:50.070Z,6.80
2019-03-05T00:33:26.531Z,6.80
2019-03-05T00:36:11.369Z,6.80
2019-03-05T00:39:12.386Z,6.90
2019-03-05T00:41:57.893Z,6.90
2019-03-05T00:44:53.010Z,6.90
2019-03-05T00:47:49.595Z,6.90
2019-03-05T00:50:51.970Z,7.00
2019-03-05T00:53:57.734Z,7.00
2019-03-05T00:56:48.929Z,7.00
2019-03-05T00:59:32.798Z,7.00
2019-03-05T01:02:16.322Z,7.10
2019-03-05T01:05:21.202Z,7.10
2019-03-05T01:07:50.269Z,7.10
2019-03-05T01:10:20.318Z,7.10
2019-03-05T01:12:49.495Z,7.10
2019-03-05T01:15:18.575Z,7.10
2019-03-05T01:17:47.615Z,7.10
2019-03-05T01:20:16.642Z,7.10
2019-03-05T01:22:45.645Z,7.10
2019-03-05T01:25:27.885Z,7.10
2019-03-05T01:27:56.954Z,7.10
2019-03-05T01:30:41.306Z,7.10
2019-03-05T01:33:13.226Z,7.10
2019-03-05T01:35:54.930Z,7.10
2019-03-05T01:38:24.021Z,7.00
2019-03-05T01:40:59.206Z,7.10
2019-03-05T01:43:28.250Z,7.10
2019-03-05T01:45:57.310Z,7.00
2019-03-05T01:48:26.421Z,7.10
2019-03-05T01:50:55.462Z,7.10
2019-03-05T01:53:24.542Z,7.10
2019-03-05T01:55:53.594Z,7.10
2019-03-05T01:58:22.666Z,7.10
2019-03-05T02:00:51.734Z,7.20
2019-03-05T02:03:20.778Z,7.10
2019-03-05T02:05:49.848Z,7.20
2019-03-05T02:08:18.888Z,7.10
2019-03-05T02:10:47.848Z,7.20
2019-03-05T02:13:16.920Z,7.10
2019-03-05T02:15:45.971Z,7.10
2019-03-05T02:18:18.686Z,7.00
2019-03-05T02:20:47.811Z,7.00
2019-03-05T02:23:37.302Z,6.90
2019-03-05T02:26:44.934Z,6.90
2019-03-05T02:29:29.843Z,6.90
2019-03-05T02:32:48.094Z,7.00
2019-03-05T02:35:39.352Z,7.00
2019-03-05T02:38:26.726Z,6.90
2019-03-05T02:41:32.883Z,6.90
2019-03-05T02:44:33.059Z,7.00
2019-03-05T02:47:35.718Z,7.00
2019-03-05T02:50:58.915Z,7.00
2019-03-05T02:53:50.802Z,7.00
2019-03-05T02:56:45.552Z,6.90
2019-03-05T02:59:13.171Z,6.90
2019-03-05T03:06:09.144Z,6.90
2019-03-05T03:08:38.208Z,6.90
2019-03-05T03:11:07.252Z,6.90
2019-03-05T03:13:36.326Z,6.80
2019-03-05T03:16:05.456Z,6.80
2019-03-05T03:18:34.583Z,6.80
2019-03-05T03:21:03.642Z,6.70
2019-03-05T03:23:32.719Z,6.70
2019-03-05T03:26:01.692Z,6.70
2019-03-05T03:28:30.782Z,6.70
2019-03-05T03:30:59.837Z,6.70
2019-03-05T03:33:28.991Z,6.70
2019-03-05T03:35:58.099Z,6.70
2019-03-05T03:38:27.134Z,6.60
2019-03-05T03:40:56.199Z,6.60
2019-03-05T03:43:25.250Z,6.60
2019-03-05T03:45:54.295Z,6.50
2019-03-05T03:48:23.277Z,6.50
2019-03-05T03:50:52.347Z,6.50
2019-03-05T03:53:21.390Z,6.50
2019-03-05T03:55:50.423Z,6.50
2019-03-05T03:58:19.402Z,6.50
2019-03-05T04:00:48.450Z,6.40
2019-03-05T04:03:17.398Z,6.40
2019-03-05T04:05:46.460Z,6.30
2019-03-05T04:08:15.435Z,6.20
2019-03-05T04:10:44.413Z,6.20
2019-03-05T04:13:14.967Z,6.10
2019-03-05T04:15:44.207Z,6.20
2019-03-05T04:18:13.192Z,6.10
2019-03-05T04:20:46.105Z,6.20
2019-03-05T04:23:15.055Z,6.20
2019-03-05T04:25:44.047Z,6.20
2019-03-05T04:28:13.135Z,6.20
2019-03-05T04:30:42.203Z,6.20
2019-03-05T04:33:11.263Z,6.20
2019-03-05T04:35:40.340Z,6.20
2019-03-05T04:38:09.414Z,6.10
2019-03-05T04:40:38.526Z,6.10
2019-03-05T04:43:07.609Z,6.10
2019-03-05T04:45:57.491Z,6.10
2019-03-05T04:48:26.577Z,6.20
2019-03-05T04:51:13.689Z,6.20
2019-03-05T04:53:42.892Z,6.20
2019-03-05T04:56:11.910Z,6.20
2019-03-05T04:58:40.950Z,6.20
2019-03-05T05:01:10.014Z,6.20
2019-03-05T05:03:38.971Z,6.30
2019-03-05T05:06:08.024Z,6.30
2019-03-05T05:08:37.091Z,6.30
2019-03-05T05:11:06.122Z,6.30
2019-03-05T05:13:35.465Z,6.30
2019-03-05T05:16:04.552Z,6.30
2019-03-05T05:18:33.681Z,6.30
2019-03-05T05:21:02.674Z,6.30
2019-03-05T05:23:31.669Z,6.30
2019-03-05T05:26:00.721Z,6.20
2019-03-05T05:28:29.673Z,6.20
2019-03-05T05:30:58.733Z,6.20
2019-03-05T05:33:27.711Z,6.20
2019-03-05T05:35:56.698Z,6.20
2019-03-05T05:38:25.887Z,6.20
2019-03-05T05:40:54.924Z,6.20
2019-03-05T05:43:26.189Z,6.20
2019-03-05T05:45:55.177Z,6.20
2019-03-05T05:48:24.206Z,6.10
2019-03-05T05:50:53.241Z,6.10
2019-03-05T05:53:22.316Z,6.20
2019-03-05T05:55:51.276Z,6.20
2019-03-05T05:58:20.242Z,6.10
2019-03-05T06:00:51.374Z,6.20
2019-03-05T06:03:20.434Z,6.20
2019-03-05T06:05:49.478Z,6.20
2019-03-05T06:08:18.482Z,6.20
2019-03-05T06:10:47.584Z,6.20
2019-03-05T06:13:16.656Z,6.20
2019-03-05T06:15:45.730Z,6.20
2019-03-05T06:18:14.774Z,6.20
2019-03-05T06:20:43.726Z,6.20
2019-03-05T06:23:12.804Z,6.20
2019-03-05T06:25:41.767Z,6.20
2019-03-05T06:28:10.811Z,6.10
2019-03-05T06:30:39.993Z,6.10
2019-03-05T06:33:09.021Z,6.10
2019-03-05T06:35:38.255Z,6.10
2019-03-05T06:38:08.926Z,6.00
2019-03-05T06:40:37.967Z,6.00
2019-03-05T06:43:07.018Z,5.90
2019-03-05T06:45:36.098Z,5.80
2019-03-05T06:48:05.059Z,5.80
2019-03-05T06:50:34.054Z,5.80
2019-03-05T06:53:03.134Z,5.70
2019-03-05T06:55:32.116Z,5.70
2019-03-05T06:58:01.175Z,5.70
2019-03-05T07:00:35.046Z,5.70
2019-03-05T07:03:04.185Z,5.70
2019-03-05T07:06:08.978Z,5.70
2019-03-05T07:08:40.343Z,5.70
2019-03-05T07:11:59.700Z,5.70
2019-03-05T07:14:44.677Z,5.70
2019-03-05T07:17:20.518Z,5.70
2019-03-05T07:20:19.131Z,5.60
2019-03-05T07:23:10.862Z,5.70
2019-03-05T07:25:39.849Z,5.70
2019-03-05T07:28:08.902Z,5.70
2019-03-05T07:30:37.885Z,5.60
2019-03-05T07:33:06.845Z,5.60
2019-03-05T07:35:35.985Z,5.60
2019-03-05T07:38:05.157Z,5.70
2019-03-05T07:40:34.169Z,5.70
2019-03-05T07:43:03.146Z,5.70
2019-03-05T07:45:32.194Z,5.70
2019-03-05T07:48:01.254Z,5.80
2019-03-05T07:50:30.294Z,5.80
2019-03-05T07:52:59.421Z,5.90
2019-03-05T07:55:28.606Z,5.90
2019-03-05T07:57:57.554Z,5.90
2019-03-05T08:00:26.587Z,6.00
2019-03-05T08:02:55.642Z,6.00
2019-03-05T08:05:24.710Z,6.00
2019-03-05T08:07:53.857Z,6.00
2019-03-05T08:10:28.351Z,6.00
2019-03-05T08:13:28.198Z,6.00
2019-03-05T08:16:12.894Z,6.00
2019-03-05T08:18:41.893Z,6.10
2019-03-05T08:21:10.913Z,6.10
2019-03-05T08:23:39.923Z,6.20
2019-03-05T08:26:08.982Z,6.20
2019-03-05T08:28:38.019Z,6.20
2019-03-05T08:31:07.078Z,6.20
2019-03-05T08:33:36.165Z,6.20
2019-03-05T08:36:05.338Z,6.20
2019-03-05T08:38:34.290Z,6.30
2019-03-05T08:41:03.346Z,6.40
2019-03-05T08:43:32.327Z,6.30
2019-03-05T08:46:01.352Z,6.40
2019-03-05T08:48:30.399Z,6.50
2019-03-05T08:50:59.458Z,6.60
2019-03-05T08:53:28.527Z,6.60
2019-03-05T08:55:57.564Z,6.70
2019-03-05T08:58:26.656Z,6.80
2019-03-05T09:00:55.687Z,6.80
2019-03-05T09:03:24.746Z,6.90
2019-03-05T09:05:53.798Z,6.90
2019-03-05T09:08:22.834Z,6.90
2019-03-05T09:10:52.246Z,7.00
2019-03-05T09:13:31.946Z,7.00
2019-03-05T09:15:52.200Z,7.10
2019-03-05T09:18:21.507Z,7.10
2019-03-05T09:20:50.623Z,7.10
2019-03-05T09:23:19.687Z,7.10
2019-03-05T09:25:48.757Z,7.10
2019-03-05T09:28:17.826Z,7.10
2019-03-05T09:30:46.860Z,7.20
2019-03-05T09:33:15.903Z,7.30
2019-03-05T09:35:44.886Z,7.40
2019-03-05T09:38:13.949Z,7.60
2019-03-05T09:40:42.914Z,7.80
2019-03-05T09:43:11.970Z,8.50
2019-03-05T09:45:41.011Z,9.10
2019-03-05T09:48:09.974Z,9.50
2019-03-05T09:50:39.011Z,10.00
2019-03-05T09:53:07.997Z,10.20
2019-03-05T09:55:37.147Z,10.10
2019-03-05T09:58:08.364Z,9.90
2019-03-05T10:00:37.715Z,9.70
2019-03-05T10:03:07.066Z,9.60
2019-03-05T10:05:36.149Z,9.50
2019-03-05T10:08:05.233Z,9.70
2019-03-05T10:10:34.282Z,9.70
2019-03-05T10:13:04.431Z,9.70
2019-03-05T10:15:33.674Z,9.90
2019-03-05T10:18:12.078Z,10.00
2019-03-05T10:20:33.523Z,10.00
2019-03-05T10:23:02.693Z,10.20
2019-03-05T10:25:31.783Z,10.00
2019-03-05T10:28:00.864Z,10.40
2019-03-05T10:30:29.934Z,10.70
2019-03-05T10:32:59.586Z,10.80
2019-03-05T10:35:29.287Z,10.70
2019-03-05T10:37:58.678Z,10.30
2019-03-05T10:40:30.902Z,10.20
2019-03-05T10:43:07.970Z,10.30
2019-03-05T10:45:30.810Z,10.10
2019-03-05T10:47:59.774Z,10.00
2019-03-05T10:50:29.028Z,9.90
2019-03-05T10:52:58.063Z,9.90
2019-03-05T10:55:27.089Z,9.70
2019-03-05T10:57:57.156Z,9.60
2019-03-05T11:00:33.774Z,9.50
2019-03-05T11:03:02.834Z,9.60
2019-03-05T11:05:34.399Z,9.60
2019-03-05T11:08:03.545Z,9.50
2019-03-05T11:10:32.730Z,9.40
2019-03-05T11:13:01.862Z,9.30
2019-03-05T11:15:31.340Z,9.30
2019-03-05T11:18:00.423Z,9.30
2019-03-05T11:20:29.490Z,9.30
2019-03-05T11:22:58.527Z,9.40
2019-03-05T11:25:27.558Z,9.60
2019-03-05T11:27:56.552Z,9.70
2019-03-05T11:30:35.660Z,9.60
2019-03-05T11:32:57.090Z,9.80
2019-03-05T11:35:27.163Z,10.00
2019-03-05T11:37:56.239Z,10.20
2019-03-05T11:40:25.398Z,10.50
2019-03-05T11:42:54.515Z,10.60
2019-03-05T11:45:24.959Z,10.70
2019-03-05T11:47:54.011Z,10.70
2019-03-05T11:50:23.120Z,10.60
2019-03-05T11:52:52.294Z,10.40
2019-03-05T11:55:21.774Z,10.30
2019-03-05T11:57:50.851Z,10.10
2019-03-05T12:00:28.337Z,10.00
2019-03-05T12:02:57.414Z,9.90
2019-03-05T12:05:26.447Z,10.00
2019-03-05T12:07:55.488Z,10.00
2019-03-05T12:10:24.510Z,10.00
2019-03-05T12:12:53.550Z,9.90
2019-03-05T12:15:22.543Z,9.90
2019-03-05T12:17:51.633Z,10.00
2019-03-05T12:20:20.618Z,10.00
2019-03-05T12:22:49.677Z,10.10
2019-03-05T12:25:18.750Z,10.20
2019-03-05T12:27:48.174Z,10.20
2019-03-05T12:30:21.703Z,10.30
2019-03-05T12:32:50.757Z,10.30
2019-03-05T12:35:19.734Z,10.20
2019-03-05T12:37:48.797Z,10.40
2019-03-05T12:40:17.870Z,10.50
2019-03-05T12:42:46.890Z,10.50
2019-03-05T12:45:16.219Z,10.50
2019-03-05T12:47:45.275Z,10.40
2019-03-05T12:50:16.641Z,10.40
2019-03-05T12:52:46.252Z,10.40
2019-03-05T12:55:15.367Z,10.40
2019-03-05T12:57:44.465Z,10.50
2019-03-05T13:00:16.699Z,10.70
2019-03-05T13:02:45.862Z,10.60
2019-03-05T13:05:15.575Z,10.70
2019-03-05T13:07:44.638Z,10.70
2019-03-05T13:10:18.411Z,10.80
2019-03-05T13:12:47.486Z,10.80
2019-03-05T13:15:18.837Z,10.80
2019-03-05T13:17:51.623Z,10.90
2019-03-05T13:20:18.573Z,11.10
2019-03-05T13:22:47.625Z,11.10
2019-03-05T13:25:17.371Z,11.10
2019-03-05T13:27:46.427Z,11.20
2019-03-05T13:30:17.294Z,11.30
2019-03-05T13:32:46.256Z,11.40
2019-03-05T13:35:15.971Z,11.40
2019-03-05T13:37:45.398Z,11.40
2019-03-05T13:40:16.626Z,11.30
2019-03-05T13:42:45.665Z,11.30
2019-03-05T13:45:15.195Z,11.20
2019-03-05T13:47:50.387Z,11.20
2019-03-05T13:50:56.274Z,11.20
2019-03-05T13:54:14.034Z,11.20
2019-03-05T13:57:15.337Z,11.20
2019-03-05T13:59:50.214Z,11.20
2019-03-05T14:02:25.859Z,11.10
2019-03-05T14:05:15.721Z,11.10
2019-03-05T14:08:14.256Z,11.20
2019-03-05T14:10:43.396Z,11.10
2019-03-05T14:13:12.557Z,11.00
2019-03-05T14:15:42.870Z,11.00
2019-03-05T14:18:11.931Z,10.90
2019-03-05T14:20:40.982Z,11.00
2019-03-05T14:23:10.007Z,11.10
2019-03-05T14:25:39.098Z,11.20
2019-03-05T14:28:08.220Z,11.20
2019-03-05T14:30:37.711Z,11.20
2019-03-05T14:33:06.749Z,11.30
2019-03-05T14:35:35.858Z,11.30
2019-03-05T14:38:05.037Z,11.30
2019-03-05T14:40:34.054Z,11.20
2019-03-05T14:43:03.063Z,11.20
2019-03-05T14:45:33.889Z,11.20
2019-03-05T14:48:04.328Z,11.20
2019-03-05T14:50:33.834Z,11.20
2019-03-05T14:53:02.968Z,11.20
2019-03-05T14:55:32.071Z,11.20
2019-03-05T14:58:01.228Z,11.20
2019-03-05T15:00:30.326Z,11.10
2019-03-05T15:02:59.361Z,11.00
2019-03-05T15:05:28.445Z,10.80
2019-03-05T15:07:57.464Z,10.80
2019-03-05T15:10:26.445Z,10.60
2019-03-05T15:12:55.499Z,10.60
2019-03-05T15:15:26.746Z,10.50
2019-03-05T15:17:55.810Z,10.50
2019-03-05T15:20:24.940Z,10.50
2019-03-05T15:22:54.106Z,10.50
2019-03-05T15:25:23.240Z,10.50
2019-03-05T15:27:52.337Z,10.50
2019-03-05T15:30:22.275Z,10.50
2019-03-05T15:32:51.295Z,10.50
2019-03-05T15:35:20.470Z,10.50
2019-03-05T15:37:49.563Z,10.50
2019-03-05T15:40:18.703Z,10.40
2019-03-05T15:42:47.718Z,10.30
2019-03-05T15:45:17.395Z,10.30
2019-03-05T15:47:46.465Z,10.30
2019-03-05T15:50:17.542Z,10.20
2019-03-05T15:52:47.770Z,10.20
2019-03-05T15:55:16.723Z,10.20
2019-03-05T15:57:45.705Z,10.10
2019-03-05T16:00:17.438Z,10.10
2019-03-05T16:02:46.486Z,10.10
2019-03-05T16:05:16.735Z,10.00
2019-03-05T16:07:48.142Z,10.00
2019-03-05T16:10:18.648Z,10.00
2019-03-05T16:12:47.887Z,10.00
2019-03-05T16:15:18.810Z,9.90
2019-03-05T16:17:47.651Z,9.90
2019-03-05T16:20:16.698Z,9.80
2019-03-05T16:22:45.772Z,9.80
2019-03-05T16:25:15.036Z,9.80
2019-03-05T16:27:44.094Z,9.70
2019-03-05T16:30:35.711Z,9.70
2019-03-05T16:33:15.554Z,9.60
2019-03-05T16:36:02.413Z,9.60
2019-03-05T16:39:02.475Z,9.50
2019-03-05T16:41:42.970Z,9.40
2019-03-05T16:44:23.261Z,9.30
2019-03-05T16:47:01.346Z,9.30
2019-03-05T16:49:47.943Z,9.20
2019-03-05T16:52:42.138Z,9.20
2019-03-05T16:55:28.010Z,9.10
2019-03-05T16:58:14.261Z,9.10
2019-03-05T17:00:55.313Z,9.00
2019-03-05T17:03:36.126Z,9.00
2019-03-05T17:06:24.146Z,8.90
2019-03-05T17:09:14.866Z,8.80
2019-03-05T17:11:56.077Z,8.80
2019-03-05T17:14:25.341Z,8.70
2019-03-05T17:16:54.441Z,8.70
2019-03-05T17:19:23.409Z,8.60
2019-03-05T17:21:53.224Z,8.60
2019-03-05T17:24:22.363Z,8.50
2019-03-05T17:26:51.450Z,8.50
2019-03-05T17:29:20.560Z,8.40
2019-03-05T17:31:49.586Z,8.30
2019-03-05T17:34:18.671Z,8.30
2019-03-05T17:36:48.225Z,8.20
2019-03-05T17:39:22.286Z,8.20
2019-03-05T17:41:51.339Z,8.10
2019-03-05T17:44:20.400Z,8.10
2019-03-05T17:46:49.463Z,8.00
2019-03-05T17:49:18.498Z,8.00
2019-03-05T17:51:47.602Z,7.90
2019-03-05T17:54:16.595Z,7.90
2019-03-05T17:56:45.625Z,7.90
2019-03-05T17:59:14.632Z,7.80
2019-03-05T18:01:43.687Z,7.80
2019-03-05T18:04:12.649Z,7.80
2019-03-05T18:06:41.703Z,7.70
2019-03-05T18:09:10.748Z,7.70
2019-03-05T18:11:41.767Z,7.60
2019-03-05T18:14:10.475Z,7.50
2019-03-05T18:16:39.480Z,7.50
2019-03-05T18:19:08.540Z,7.40
2019-03-05T18:21:37.582Z,7.40
2019-03-05T18:24:06.643Z,7.30
2019-03-05T18:26:35.597Z,7.30
2019-03-05T18:29:04.566Z,7.30
2019-03-05T18:31:33.615Z,7.20
2019-03-05T18:34:02.927Z,7.20
2019-03-05T18:36:32.070Z,7.20
2019-03-05T18:39:01.138Z,7.10
2019-03-05T18:41:30.216Z,7.10
2019-03-05T18:43:59.277Z,7.10
2019-03-05T18:46:28.495Z,7.00
2019-03-05T18:48:57.539Z,7.00
2019-03-05T18:51:26.503Z,6.90
2019-03-05T18:53:55.463Z,6.90
2019-03-05T18:56:24.439Z,6.90
2019-03-05T18:58:53.604Z,6.80
2019-03-05T19:01:22.746Z,6.70
2019-03-05T19:03:51.789Z,6.70
2019-03-05T19:06:20.775Z,6.60
2019-03-05T19:08:49.791Z,6.60
2019-03-05T19:11:18.942Z,6.50
2019-03-05T19:13:47.985Z,6.50
2019-03-05T19:16:16.977Z,6.50
2019-03-05T19:18:46.051Z,6.40
2019-03-05T19:21:15.096Z,6.40
2019-03-05T19:23:44.262Z,6.40
2019-03-05T19:26:14.322Z,6.30
2019-03-05T19:28:43.270Z,6.30
2019-03-05T19:31:12.257Z,6.30
2019-03-05T19:33:41.227Z,6.30
2019-03-05T19:36:10.190Z,6.30
2019-03-05T19:38:39.273Z,6.30
2019-03-05T19:41:08.374Z,6.20
2019-03-05T19:43:37.426Z,6.20
2019-03-05T19:46:06.566Z,6.20
2019-03-05T19:48:35.540Z,6.10
2019-03-05T19:51:04.656Z,6.10
2019-03-05T19:53:33.690Z,6.10
2019-03-05T19:56:02.725Z,6.10
2019-03-05T19:58:31.832Z,6.10
2019-03-05T20:01:06.508Z,6.10
2019-03-05T20:03:35.569Z,6.10
2019-03-05T20:06:04.714Z,6.10
2019-03-05T20:08:39.796Z,6.10
2019-03-05T20:11:04.446Z,6.10
2019-03-05T20:13:33.566Z,6.10
2019-03-05T20:16:02.658Z,6.20
2019-03-05T20:18:31.742Z,6.20
2019-03-05T20:21:00.831Z,6.20
2019-03-05T20:23:29.959Z,6.20
2019-03-05T20:25:58.925Z,6.20
2019-03-05T20:28:27.879Z,6.30
2019-03-05T20:30:56.958Z,6.30
2019-03-05T20:33:25.994Z,6.30
2019-03-05T20:35:55.016Z,6.30
2019-03-05T20:38:24.157Z,6.30
2019-03-05T20:40:53.201Z,6.30
2019-03-05T20:43:22.255Z,6.30
2019-03-05T20:45:51.831Z,6.30
2019-03-05T20:52:54.460Z,6.20
2019-03-05T20:55:23.542Z,6.20
2019-03-05T20:57:52.624Z,6.20
2019-03-05T21:00:29.302Z,6.20
2019-03-05T21:03:02.791Z,6.20
2019-03-05T21:05:34.203Z,6.20
2019-03-05T21:08:03.241Z,6.20
2019-03-05T21:10:32.305Z,6.10
2019-03-05T21:13:02.807Z,6.10
2019-03-05T21:15:32.171Z,6.10
2019-03-05T21:18:02.348Z,6.10
2019-03-05T21:20:31.631Z,6.10
2019-03-05T21:23:00.603Z,6.00
2019-03-05T21:25:29.906Z,6.00
2019-03-05T21:27:58.894Z,6.00
2019-03-05T21:30:28.009Z,6.00
2019-03-05T21:32:57.054Z,6.00
2019-03-05T21:35:26.030Z,6.00
2019-03-05T21:37:55.198Z,6.00
2019-03-05T21:40:24.269Z,5.90
2019-03-05T21:42:53.389Z,5.90
2019-03-05T21:45:25.786Z,6.00
2019-03-05T21:47:57.353Z,6.00
2019-03-05T21:50:26.414Z,6.00
2019-03-05T21:52:55.512Z,6.00
2019-03-05T21:55:24.519Z,6.00
2019-03-05T21:57:53.562Z,6.10
2019-03-05T22:00:24.762Z,6.10
2019-03-05T22:02:54.000Z,6.10
2019-03-05T22:05:23.081Z,6.10
2019-03-05T22:07:52.142Z,6.20
2019-03-05T22:10:21.237Z,6.20
2019-03-05T22:12:50.521Z,6.30
2019-03-05T22:15:19.966Z,6.30
2019-03-05T22:17:49.047Z,6.30
2019-03-05T22:20:18.519Z,6.40
2019-03-05T22:22:47.562Z,6.40
2019-03-05T22:25:17.715Z,6.50
2019-03-05T22:27:46.975Z,6.50
2019-03-05T22:30:20.965Z,6.60
2019-03-05T22:32:50.010Z,6.60
2019-03-05T22:35:19.373Z,6.70
2019-03-05T22:37:48.433Z,6.60
2019-03-05T22:40:17.538Z,6.70
2019-03-05T22:42:46.613Z,6.70
2019-03-05T22:45:17.713Z,6.70
2019-03-05T22:47:46.938Z,6.80
2019-03-05T22:50:16.109Z,6.80
2019-03-05T22:52:45.149Z,6.90
2019-03-05T22:55:14.262Z,6.80
2019-03-05T22:57:43.295Z,6.90
2019-03-05T23:00:41.630Z,6.90
2019-03-05T23:03:10.606Z,6.90
2019-03-05T23:05:39.654Z,6.90
2019-03-05T23:08:08.899Z,7.00
2019-03-05T23:10:37.891Z,7.00
2019-03-05T23:13:06.853Z,7.00
2019-03-05T23:15:35.922Z,7.00
2019-03-05T23:18:04.952Z,7.00
2019-03-05T23:20:34.119Z,7.00
2019-03-05T23:23:03.218Z,7.00
2019-03-05T23:25:32.262Z,7.00
2019-03-05T23:28:01.318Z,7.00
2019-03-05T23:30:30.350Z,7.00
2019-03-05T23:32:59.303Z,7.00
2019-03-05T23:35:28.365Z,7.10
2019-03-05T23:37:57.403Z,7.00
2019-03-05T23:40:26.445Z,7.00
2019-03-05T23:42:55.539Z,7.10
2019-03-05T23:45:24.546Z,7.10
2019-03-05T23:47:53.617Z,7.10
2019-03-05T23:50:22.694Z,7.10
2019-03-05T23:52:51.735Z,7.20
2019-03-05T23:55:20.810Z,7.10
2019-03-05T23:57:49.841Z,7.10
